Time;durP1;ratioP1;P1;durP2;ratioP2;P2;SDS_P1;SDS_P2;PMS_P1;PMS_P2;Temp;Humidity;BMP_temperature;BMP_pressure;BME280_temperature;BME280_humidity;BME280_pressure;Samples;Min_cycle;Max_cycle;Signal;HPM_P1;HPM_P2
2023/01/05 00:00:52;;;;;;;19.70;5.05;;;9.70;99.90;;;;;;5073428;28;20072;-65
2023/01/05 00:03:18;;;;;;;23.50;5.63;;;9.70;99.90;;;;;;5054337;28;20552;-65
2023/01/05 00:05:43;;;;;;;20.58;5.65;;;9.60;99.90;;;;;;5038646;28;20131;-65
2023/01/05 00:08:09;;;;;;;17.80;5.15;;;9.60;99.90;;;;;;5073450;28;20067;-66
2023/01/05 00:24:24;;;;;;;22.08;6.28;;;9.60;99.90;;;;;;5053933;28;20508;-66
2023/01/05 00:26:50;;;;;;;25.85;6.32;;;9.60;99.90;;;;;;5072743;28;20040;-65
2023/01/05 00:29:16;;;;;;;20.70;4.70;;;9.60;99.90;;;;;;5054731;28;20066;-65
2023/01/05 00:31:42;;;;;;;22.67;5.07;;;9.60;99.90;;;;;;5037499;28;20036;-65
2023/01/05 00:34:07;;;;;;;17.08;4.43;;;9.60;99.90;;;;;;5072732;28;20058;-65
2023/01/05 00:36:33;;;;;;;25.05;5.55;;;9.60;99.90;;;;;;5055003;28;20043;-65
2023/01/05 00:38:58;;;;;;;19.77;4.43;;;9.70;99.90;;;;;;5071608;28;20043;-65
2023/01/05 00:41:24;;;;;;;15.23;3.50;;;9.70;99.90;;;;;;5054830;28;20039;-65
2023/01/05 00:43:50;;;;;;;15.80;3.95;;;9.70;99.90;;;;;;5054539;28;20048;-65
2023/01/05 00:46:15;;;;;;;18.20;4.65;;;9.70;99.90;;;;;;5071625;28;20402;-65
2023/01/05 00:48:41;;;;;;;20.25;4.53;;;9.80;99.90;;;;;;5038297;28;20481;-65
2023/01/05 00:51:07;;;;;;;20.83;5.57;;;9.80;99.90;;;;;;5054745;28;20032;-65
2023/01/05 00:53:32;;;;;;;22.27;5.55;;;9.90;99.90;;;;;;5053709;28;20036;-65
2023/01/05 00:55:58;;;;;;;26.15;5.47;;;9.90;99.90;;;;;;5054489;28;20044;-65
2023/01/05 00:58:26;;;;;;;15.63;5.55;;;10.00;99.90;;;;;;5072222;28;20063;-65
2023/01/05 01:00:52;;;;;;;16.25;4.63;;;10.00;99.90;;;;;;5037109;28;20041;-65
2023/01/05 01:03:18;;;;;;;18.90;4.45;;;10.00;99.90;;;;;;5054210;28;20550;-65
2023/01/05 01:05:44;;;;;;;17.58;4.90;;;10.00;99.90;;;;;;5054222;28;20037;-65
2023/01/05 01:08:09;;;;;;;14.95;4.75;;;10.00;99.90;;;;;;5053340;28;20040;-65
2023/01/05 01:10:39;;;;;;;16.95;3.97;;;10.00;99.90;;;;;;5054863;28;20075;-65
2023/01/05 01:13:04;;;;;;;13.27;3.58;;;10.00;99.90;;;;;;5053189;28;20079;-65
2023/01/05 01:15:30;;;;;;;19.92;4.57;;;10.00;99.90;;;;;;5071823;28;20075;-65
2023/01/05 01:17:56;;;;;;;18.60;4.82;;;10.00;99.90;;;;;;5054118;28;20570;-65
2023/01/05 01:20:21;;;;;;;27.38;5.03;;;10.00;99.90;;;;;;5053263;28;20045;-65
2023/01/05 01:22:47;;;;;;;24.13;5.75;;;10.00;99.90;;;;;;5053997;28;20055;-66
2023/01/05 01:25:13;;;;;;;18.63;5.28;;;10.00;99.90;;;;;;5072022;28;20048;-65
2023/01/05 01:27:38;;;;;;;14.57;4.15;;;9.90;99.90;;;;;;5071329;28;20405;-65
2023/01/05 01:30:05;;;;;;;15.38;4.47;;;9.90;99.90;;;;;;5053743;28;20405;-65
2023/01/05 01:32:30;;;;;;;21.95;6.13;;;9.90;99.90;;;;;;5054319;28;20358;-65
2023/01/05 01:34:56;;;;;;;22.77;4.88;;;9.90;99.90;;;;;;5053351;28;20097;-65
2023/01/05 01:37:22;;;;;;;17.77;6.03;;;9.80;99.90;;;;;;5054131;28;20493;-65
2023/01/05 01:39:47;;;;;;;15.75;4.88;;;9.90;99.90;;;;;;5071944;28;20470;-65
2023/01/05 01:42:15;;;;;;;21.27;5.20;;;9.90;99.90;;;;;;5052931;28;20501;-65
2023/01/05 01:44:51;;;;;;;15.13;4.15;;;9.90;99.90;;;;;;5054036;28;20051;-65
2023/01/05 01:47:38;;;;;;;17.75;4.13;;;10.00;99.90;;;;;;5053777;28;20041;-65
2023/01/05 01:50:18;;;;;;;14.15;5.38;;;10.00;99.90;;;;;;5070848;28;20076;-65
2023/01/05 01:52:46;;;;;;;23.63;5.30;;;10.00;99.90;;;;;;5053611;28;20052;-65
2023/01/05 01:55:13;;;;;;;16.75;4.00;;;10.00;99.90;;;;;;5052939;28;20185;-65
2023/01/05 01:57:39;;;;;;;18.58;4.75;;;10.00;99.90;;;;;;5072058;28;20119;-65
2023/01/05 02:00:07;;;;;;;16.40;4.88;;;10.00;99.90;;;;;;5053767;28;20052;-65
2023/01/05 02:02:33;;;;;;;18.80;5.35;;;10.00;99.90;;;;;;5053357;28;20461;-65
2023/01/05 02:05:03;;;;;;;16.38;4.43;;;10.00;99.90;;;;;;5053425;28;20127;-65
2023/01/05 02:07:33;;;;;;;20.25;5.03;;;9.90;99.90;;;;;;5054096;28;20435;-65
2023/01/05 02:10:00;;;;;;;19.95;5.50;;;9.90;99.90;;;;;;5052623;28;20037;-65
2023/01/05 02:12:55;;;;;;;15.98;5.07;;;9.90;99.90;;;;;;5053512;28;20051;-65
2023/01/05 02:15:20;;;;;;;18.17;5.68;;;9.90;99.90;;;;;;5026563;28;20059;-66
2023/01/05 02:18:01;;;;;;;25.15;6.00;;;9.90;99.90;;;;;;5070636;28;20040;-66
2023/01/05 02:20:49;;;;;;;12.52;4.28;;;9.80;99.90;;;;;;5036731;28;20058;-65
2023/01/05 02:23:53;;;;;;;20.15;5.10;;;9.80;99.90;;;;;;5036168;28;20530;-65
2023/01/05 02:26:52;;;;;;;19.35;6.03;;;9.80;99.90;;;;;;5053811;28;20078;-66
2023/01/05 02:29:45;;;;;;;21.60;5.18;;;9.80;99.90;;;;;;5057063;28;20477;-65
2023/01/05 02:32:35;;;;;;;27.55;6.45;;;9.80;99.90;;;;;;5056561;28;20040;-65
2023/01/05 02:35:30;;;;;;;23.58;4.70;;;9.70;99.90;;;;;;5056850;28;20040;-65
2023/01/05 02:38:30;;;;;;;20.97;5.40;;;9.70;99.90;;;;;;5056352;28;20055;-66
2023/01/05 02:41:07;;;;;;;19.25;6.22;;;9.70;99.90;;;;;;5056935;28;20044;-65
2023/01/05 02:43:33;;;;;;;14.85;4.88;;;9.70;99.90;;;;;;5057158;28;20041;-65
2023/01/05 02:45:58;;;;;;;19.85;4.97;;;9.70;99.90;;;;;;5055965;28;20041;-65
2023/01/05 02:48:24;;;;;;;19.98;5.32;;;9.70;99.90;;;;;;5056757;28;20063;-65
2023/01/05 02:51:00;;;;;;;17.20;5.60;;;9.70;99.90;;;;;;5056585;28;20423;-65
2023/01/05 02:53:33;;;;;;;28.60;6.10;;;9.70;99.90;;;;;;5039189;28;20043;-65
2023/01/05 02:56:20;;;;;;;24.08;5.80;;;9.70;99.90;;;;;;5056917;28;20052;-65
2023/01/05 02:58:55;;;;;;;19.10;4.90;;;9.80;99.90;;;;;;5073847;28;20033;-65
2023/01/05 03:01:38;;;;;;;16.42;4.68;;;9.80;99.90;;;;;;5056615;28;20097;-65
2023/01/05 03:04:12;;;;;;;16.48;4.40;;;9.80;99.90;;;;;;5056112;28;20049;-66
2023/01/05 03:06:55;;;;;;;20.92;5.30;;;9.80;99.90;;;;;;5055954;28;20037;-65
2023/01/05 03:09:25;;;;;;;15.43;4.75;;;9.90;99.90;;;;;;5074370;28;20174;-65
2023/01/05 03:14:56;;;;;;;21.88;4.47;;;9.80;99.90;;;;;;5056316;28;20056;-65
2023/01/05 03:17:30;;;;;;;23.00;6.55;;;9.80;99.90;;;;;;5056329;28;20070;-65
2023/01/05 03:19:58;;;;;;;18.77;5.53;;;9.80;99.90;;;;;;5055525;28;20048;-65
2023/01/05 03:37:11;;;;;;;18.67;4.50;;;9.70;99.90;;;;;;5055982;28;20055;-66
2023/01/05 03:39:41;;;;;;;15.43;5.68;;;9.70;99.90;;;;;;5055709;28;20048;-65
2023/01/05 03:42:09;;;;;;;24.23;5.82;;;9.70;99.90;;;;;;5073281;28;20060;-65
2023/01/05 03:44:40;;;;;;;19.23;5.05;;;9.70;99.90;;;;;;5055949;28;20048;-65
2023/01/05 03:47:06;;;;;;;20.27;5.20;;;9.70;99.90;;;;;;5038679;28;20036;-65
2023/01/05 03:49:32;;;;;;;21.33;6.28;;;9.70;99.90;;;;;;5055371;28;20428;-65
2023/01/05 03:51:58;;;;;;;20.00;5.13;;;9.80;99.90;;;;;;5055690;28;20048;-65
2023/01/05 03:54:23;;;;;;;20.85;4.95;;;9.80;99.90;;;;;;5055601;28;20076;-65
2023/01/05 03:56:49;;;;;;;17.15;4.38;;;9.80;99.90;;;;;;5054920;28;20446;-65
2023/01/05 03:59:14;;;;;;;14.82;4.22;;;9.80;99.90;;;;;;5055755;28;20078;-65
2023/01/05 04:01:40;;;;;;;19.08;4.63;;;9.80;99.90;;;;;;5072748;28;20037;-65
2023/01/05 04:04:06;;;;;;;21.52;5.18;;;9.90;99.90;;;;;;5055199;28;20063;-65
2023/01/05 04:06:31;;;;;;;22.13;4.82;;;9.80;99.90;;;;;;5055412;28;20076;-65
2023/01/05 04:08:57;;;;;;;20.80;4.70;;;9.80;99.90;;;;;;5054473;28;20094;-65
2023/01/05 04:11:24;;;;;;;19.13;4.75;;;9.80;99.90;;;;;;5055184;28;20051;-65
2023/01/05 04:13:49;;;;;;;27.17;6.45;;;9.80;99.90;;;;;;5055419;28;20048;-65
2023/01/05 04:16:15;;;;;;;16.27;4.45;;;9.80;99.90;;;;;;5054189;28;20489;-65
2023/01/05 04:18:41;;;;;;;28.27;5.22;;;9.80;99.90;;;;;;5055366;28;20094;-65
2023/01/05 04:21:07;;;;;;;20.92;6.22;;;9.80;99.90;;;;;;5073023;28;20044;-65
2023/01/05 04:23:34;;;;;;;23.90;5.10;;;9.80;99.90;;;;;;5072508;28;20037;-65
2023/01/05 04:26:00;;;;;;;22.85;5.43;;;9.90;99.90;;;;;;5055031;28;20040;-65
2023/01/05 04:28:26;;;;;;;14.43;4.05;;;9.90;99.90;;;;;;5072953;28;20045;-65
2023/01/05 04:30:53;;;;;;;15.82;4.78;;;9.90;99.90;;;;;;5071983;28;20044;-65
2023/01/05 04:33:19;;;;;;;20.48;5.82;;;9.90;99.90;;;;;;5054881;28;20044;-65
2023/01/05 04:35:45;;;;;;;18.42;4.63;;;9.90;99.90;;;;;;5054847;28;20113;-65
2023/01/05 04:38:11;;;;;;;17.25;4.32;;;9.80;99.90;;;;;;5071793;28;20083;-65
2023/01/05 04:40:37;;;;;;;16.85;4.72;;;9.80;99.90;;;;;;5073007;28;20091;-65
2023/01/05 04:43:04;;;;;;;18.42;5.35;;;9.90;99.90;;;;;;5054725;28;20086;-65
2023/01/05 04:45:30;;;;;;;21.35;6.45;;;9.80;99.90;;;;;;5053997;28;20067;-65
2023/01/05 04:47:55;;;;;;;19.20;4.55;;;9.80;99.90;;;;;;5054593;28;20482;-65
2023/01/05 04:50:22;;;;;;;15.60;5.03;;;9.80;99.90;;;;;;5071749;28;20041;-65
2023/01/05 04:52:48;;;;;;;17.10;4.82;;;9.90;99.90;;;;;;5053741;28;20044;-65
2023/01/05 04:55:13;;;;;;;16.60;4.82;;;9.90;99.90;;;;;;5054787;28;20040;-65
2023/01/05 04:57:39;;;;;;;15.63;4.20;;;9.90;99.90;;;;;;5072569;28;20103;-65
2023/01/05 05:00:05;;;;;;;22.02;4.70;;;9.90;99.90;;;;;;5071343;28;20041;-65
2023/01/05 05:02:31;;;;;;;15.82;4.88;;;9.90;99.90;;;;;;5072284;28;20090;-65
2023/01/05 05:04:57;;;;;;;15.63;4.18;;;9.90;99.90;;;;;;5036916;28;20036;-65
2023/01/05 05:07:23;;;;;;;17.40;4.93;;;9.90;99.90;;;;;;5054181;28;20048;-65
2023/01/05 05:09:48;;;;;;;19.98;4.90;;;9.90;99.90;;;;;;5054183;28;20045;-65
2023/01/05 05:12:14;;;;;;;16.33;4.13;;;9.90;99.90;;;;;;5053394;28;20044;-65
2023/01/05 05:14:40;;;;;;;17.73;4.45;;;9.90;99.90;;;;;;5054364;28;20447;-65
2023/01/05 05:17:06;;;;;;;15.02;5.68;;;9.90;99.90;;;;;;5054050;28;20044;-65
2023/01/05 05:19:32;;;;;;;17.42;4.80;;;9.90;99.90;;;;;;5053497;28;20123;-65
2023/01/05 05:21:57;;;;;;;22.75;4.97;;;9.80;99.90;;;;;;5037269;28;20127;-65
2023/01/05 05:24:23;;;;;;;18.80;4.75;;;9.90;99.90;;;;;;5053869;28;20053;-65
2023/01/05 05:26:49;;;;;;;16.90;4.53;;;9.90;99.90;;;;;;5053286;28;20476;-65
2023/01/05 05:29:15;;;;;;;19.90;4.88;;;9.90;99.90;;;;;;5071813;28;20040;-65
2023/01/05 05:31:41;;;;;;;20.48;5.45;;;9.90;99.90;;;;;;5072163;28;20041;-65
2023/01/05 05:34:07;;;;;;;34.58;5.43;;;9.90;99.90;;;;;;5053238;28;20382;-65
2023/01/05 05:36:32;;;;;;;19.08;4.65;;;9.80;99.90;;;;;;5037711;28;20051;-65
2023/01/05 05:38:58;;;;;;;11.88;4.55;;;9.90;99.90;;;;;;5053854;28;20473;-66
2023/01/05 05:41:24;;;;;;;20.27;4.78;;;9.80;99.90;;;;;;5053038;28;20070;-65
2023/01/05 05:43:50;;;;;;;18.52;5.63;;;9.80;99.90;;;;;;5053766;28;20079;-65
2023/01/05 05:46:15;;;;;;;22.33;6.43;;;9.80;99.90;;;;;;5071730;28;20041;-65
2023/01/05 05:48:41;;;;;;;22.35;5.10;;;9.80;99.90;;;;;;5071104;28;20044;-65
2023/01/05 05:51:07;;;;;;;25.63;5.97;;;9.80;99.90;;;;;;5071706;28;20039;-65
2023/01/05 05:53:33;;;;;;;16.88;4.65;;;9.80;99.90;;;;;;5072062;28;20059;-65
2023/01/05 05:55:58;;;;;;;28.05;6.43;;;9.80;99.90;;;;;;5070970;28;20040;-65
2023/01/05 05:58:24;;;;;;;17.98;4.95;;;9.80;99.90;;;;;;5053414;28;20101;-65
2023/01/05 06:00:50;;;;;;;22.33;5.20;;;9.80;99.90;;;;;;5071594;28;20102;-65
2023/01/05 06:03:15;;;;;;;19.17;4.90;;;9.70;99.90;;;;;;5056745;28;20044;-65
2023/01/05 06:05:41;;;;;;;24.30;5.82;;;9.70;99.90;;;;;;5057976;28;20120;-65
2023/01/05 06:08:07;;;;;;;17.77;5.07;;;9.70;99.90;;;;;;5057982;28;20039;-65
2023/01/05 06:10:32;;;;;;;20.55;6.65;;;9.70;99.90;;;;;;5075008;28;20033;-65
2023/01/05 06:12:58;;;;;;;20.45;5.82;;;9.70;99.90;;;;;;5057394;28;20041;-65
2023/01/05 06:15:24;;;;;;;25.77;6.40;;;9.70;99.90;;;;;;5074621;28;20127;-65
2023/01/05 06:17:49;;;;;;;26.67;6.68;;;9.70;99.90;;;;;;5075052;28;20050;-66
2023/01/05 06:20:16;;;;;;;23.50;5.72;;;9.70;99.90;;;;;;5057624;28;20073;-65
2023/01/05 06:22:42;;;;;;;28.08;5.78;;;9.70;99.90;;;;;;5074367;28;20500;-65
2023/01/05 06:25:09;;;;;;;22.15;5.78;;;9.70;99.90;;;;;;5057412;28;20041;-65
2023/01/05 06:27:35;;;;;;;14.02;5.18;;;9.70;99.90;;;;;;5040654;28;20053;-65
2023/01/05 06:30:01;;;;;;;27.02;6.28;;;9.70;99.90;;;;;;5056326;28;20067;-65
2023/01/05 06:32:26;;;;;;;15.80;5.22;;;9.70;99.90;;;;;;5057014;28;20080;-65
2023/01/05 06:34:52;;;;;;;21.67;5.57;;;9.70;99.90;;;;;;5040339;28;20052;-65
2023/01/05 06:37:18;;;;;;;21.63;4.75;;;9.70;99.90;;;;;;5074329;28;20048;-65
2023/01/05 06:39:43;;;;;;;21.90;4.75;;;9.70;99.90;;;;;;5057344;28;20045;-65
2023/01/05 06:42:09;;;;;;;18.42;5.32;;;9.70;99.90;;;;;;5056984;28;20098;-65
2023/01/05 06:44:35;;;;;;;16.10;5.95;;;9.70;99.90;;;;;;5056450;28;20044;-65
2023/01/05 06:47:00;;;;;;;20.85;5.05;;;9.70;99.90;;;;;;5074711;28;20072;-65
2023/01/05 06:49:26;;;;;;;23.15;4.95;;;9.60;99.90;;;;;;5074958;28;20040;-65
2023/01/05 06:51:52;;;;;;;17.83;5.18;;;9.60;99.90;;;;;;5073961;28;20047;-65
2023/01/05 06:54:18;;;;;;;21.55;5.32;;;9.60;99.90;;;;;;5040168;28;20032;-65
2023/01/05 06:56:43;;;;;;;20.15;4.70;;;9.50;99.90;;;;;;5056658;28;20451;-65
2023/01/05 06:59:11;;;;;;;23.83;7.03;;;9.60;99.90;;;;;;5073719;28;20033;-66
2023/01/05 07:01:37;;;;;;;25.00;4.88;;;9.60;99.90;;;;;;5040242;28;20051;-65
2023/01/05 07:04:02;;;;;;;22.77;6.07;;;9.50;99.90;;;;;;5074717;28;20044;-65
2023/01/05 07:06:28;;;;;;;22.33;5.88;;;9.50;99.90;;;;;;5055703;28;20424;-65
2023/01/05 07:08:54;;;;;;;19.35;4.97;;;9.50;99.90;;;;;;5056388;28;20055;-65
2023/01/05 07:11:20;;;;;;;25.02;5.43;;;9.50;99.90;;;;;;5056452;28;20152;-65
2023/01/05 07:13:49;;;;;;;21.92;5.10;;;9.50;99.90;;;;;;5072702;28;20039;-65
2023/01/05 07:16:17;;;;;;;16.33;4.78;;;9.50;99.90;;;;;;5039741;28;20049;-65
2023/01/05 07:18:43;;;;;;;21.25;5.95;;;9.40;99.90;;;;;;5073409;28;20489;-65
2023/01/05 07:21:09;;;;;;;20.55;5.60;;;9.40;99.90;;;;;;5074411;28;20056;-65
2023/01/05 07:23:38;;;;;;;15.90;5.68;;;9.40;99.90;;;;;;5038929;28;20512;-65
2023/01/05 07:26:07;;;;;;;18.50;5.40;;;9.40;99.90;;;;;;5072717;28;20068;-66
2023/01/05 07:28:35;;;;;;;26.00;5.72;;;9.40;99.90;;;;;;5074201;28;20032;-65
2023/01/05 07:31:01;;;;;;;26.98;6.90;;;9.40;99.90;;;;;;5046543;28;20393;-65
2023/01/05 07:33:26;;;;;;;20.02;5.60;;;9.40;99.90;;;;;;5073321;28;20044;-66
2023/01/05 07:35:52;;;;;;;22.20;5.78;;;9.40;99.90;;;;;;5068939;28;20374;-65
2023/01/05 07:38:18;;;;;;;25.13;7.50;;;9.40;99.90;;;;;;5064802;28;20048;-65
2023/01/05 07:40:44;;;;;;;22.65;5.47;;;9.40;99.90;;;;;;5070567;28;20052;-65
2023/01/05 07:43:09;;;;;;;22.05;5.40;;;9.40;99.90;;;;;;5060961;28;20033;-65
2023/01/05 07:45:35;;;;;;;20.60;6.00;;;9.40;99.90;;;;;;5056019;28;20083;-65
2023/01/05 07:48:01;;;;;;;20.60;5.82;;;9.40;99.90;;;;;;5057901;28;20068;-66
2023/01/05 07:50:27;;;;;;;17.42;4.53;;;9.40;99.90;;;;;;5052597;28;20451;-65
2023/01/05 07:52:53;;;;;;;16.40;5.03;;;9.40;99.90;;;;;;5035733;28;20043;-65
2023/01/05 07:55:18;;;;;;;16.83;4.82;;;9.40;99.90;;;;;;5034641;28;20067;-65
2023/01/05 07:57:45;;;;;;;19.65;5.70;;;9.40;99.90;;;;;;5051987;28;20094;-65
2023/01/05 08:00:13;;;;;;;17.92;5.10;;;9.40;99.90;;;;;;5049281;28;20446;-65
2023/01/05 08:02:39;;;;;;;16.00;5.03;;;9.40;99.90;;;;;;5072740;28;20043;-65
2023/01/05 08:05:05;;;;;;;17.77;5.03;;;9.40;99.90;;;;;;5038552;28;20502;-65
2023/01/05 08:07:31;;;;;;;27.20;6.30;;;9.40;99.90;;;;;;5055193;28;20128;-65
2023/01/05 08:15:25;;;;;;;30.33;6.78;;;9.30;99.90;;;;;;5071914;28;20050;-65
2023/01/05 08:17:51;;;;;;;17.63;5.32;;;9.40;99.90;;;;;;5072744;28;20115;-65
2023/01/05 08:20:17;;;;;;;21.42;5.80;;;9.30;99.90;;;;;;5072957;28;20048;-65
2023/01/05 08:22:42;;;;;;;24.33;6.35;;;9.40;99.90;;;;;;5054368;28;20063;-64
2023/01/05 08:25:08;;;;;;;22.75;5.75;;;9.40;99.90;;;;;;5070998;28;20476;-65
2023/01/05 08:27:34;;;;;;;20.55;6.35;;;9.40;99.90;;;;;;5064690;28;20049;-65
2023/01/05 08:30:00;;;;;;;19.27;5.47;;;9.40;99.90;;;;;;5052174;28;20072;-65
2023/01/05 08:32:25;;;;;;;22.38;5.30;;;9.40;99.90;;;;;;5034821;28;20116;-65
2023/01/05 08:34:51;;;;;;;30.33;6.50;;;9.40;99.90;;;;;;5069425;28;20071;-64
2023/01/05 08:37:18;;;;;;;19.35;4.78;;;9.40;99.90;;;;;;5070404;28;20048;-64
2023/01/05 08:39:43;;;;;;;24.05;5.80;;;9.40;99.90;;;;;;5056273;28;20401;-65
2023/01/05 08:42:09;;;;;;;18.92;5.32;;;9.40;99.90;;;;;;5072253;28;20502;-65
2023/01/05 08:44:35;;;;;;;26.73;13.05;;;9.40;99.90;;;;;;5042002;28;20478;-65
2023/01/05 08:47:01;;;;;;;71.35;42.00;;;9.40;99.90;;;;;;5070368;28;20040;-65
2023/01/05 08:49:26;;;;;;;41.47;23.88;;;9.40;99.90;;;;;;5054520;28;20193;-64
2023/01/05 08:51:52;;;;;;;34.00;14.30;;;9.50;99.90;;;;;;5070858;28;20040;-65
2023/01/05 08:54:17;;;;;;;66.00;39.40;;;9.40;99.90;;;;;;5065982;28;20043;-65
2023/01/05 08:56:43;;;;;;;30.98;12.60;;;9.40;99.90;;;;;;5055460;28;20052;-65
2023/01/05 08:59:12;;;;;;;18.88;5.13;;;9.50;99.90;;;;;;5061640;28;20048;-65
2023/01/05 09:01:38;;;;;;;21.77;5.82;;;9.50;99.90;;;;;;5050672;28;20048;-65
2023/01/05 09:04:04;;;;;;;17.33;5.10;;;9.50;99.90;;;;;;5068800;28;20048;-65
2023/01/05 09:06:29;;;;;;;20.00;5.22;;;9.40;99.90;;;;;;5064563;28;20405;-65
2023/01/05 09:08:55;;;;;;;24.13;5.55;;;9.40;99.90;;;;;;5057231;28;20499;-65
2023/01/05 09:11:23;;;;;;;17.63;5.75;;;9.40;99.90;;;;;;5057897;28;20393;-65
2023/01/05 09:13:54;;;;;;;22.05;5.57;;;9.40;99.90;;;;;;5068566;28;20469;-65
2023/01/05 09:16:22;;;;;;;22.23;7.95;;;9.40;99.90;;;;;;5060120;28;20070;-65
2023/01/05 09:18:49;;;;;;;17.58;5.03;;;9.30;99.90;;;;;;5058425;28;20071;-65
2023/01/05 09:21:15;;;;;;;20.30;5.88;;;9.30;99.90;;;;;;5068539;28;20058;-65
2023/01/05 09:23:41;;;;;;;19.70;6.78;;;9.30;99.90;;;;;;5050872;28;20196;-64
2023/01/05 09:26:08;;;;;;;27.35;13.07;;;9.30;99.90;;;;;;5049985;28;20037;-65
2023/01/05 09:28:35;;;;;;;22.45;6.15;;;9.30;99.90;;;;;;5066711;28;20036;-65
2023/01/05 09:31:19;;;;;;;23.98;4.50;;;9.30;99.90;;;;;;5058560;28;20032;-64
2023/01/05 09:33:45;;;;;;;18.52;4.32;;;9.40;99.90;;;;;;5058158;28;20041;-64
2023/01/05 09:36:12;;;;;;;17.45;5.15;;;9.40;99.90;;;;;;5056159;28;20032;-65
2023/01/05 09:38:38;;;;;;;15.10;5.88;;;9.40;99.90;;;;;;5052412;28;20055;-65
2023/01/05 09:41:04;;;;;;;19.80;4.50;;;9.40;99.90;;;;;;5068155;28;20036;-64
2023/01/05 09:43:38;;;;;;;18.63;6.03;;;9.40;99.90;;;;;;5068156;28;20747;-64
2023/01/05 09:46:09;;;;;;;25.73;9.32;;;9.40;99.90;;;;;;5055858;28;20500;-64
2023/01/05 09:48:39;;;;;;;22.60;7.45;;;9.40;99.90;;;;;;5066331;28;20056;-64
2023/01/05 09:51:07;;;;;;;23.48;9.05;;;9.50;99.90;;;;;;5050379;28;20051;-64
2023/01/05 09:53:33;;;;;;;24.25;7.55;;;9.50;99.90;;;;;;5050397;28;20421;-64
2023/01/05 09:56:00;;;;;;;20.90;10.35;;;9.50;99.90;;;;;;5060720;28;20044;-64
2023/01/05 09:58:30;;;;;;;18.05;6.20;;;9.50;99.90;;;;;;5034956;28;20049;-64
2023/01/05 10:01:13;;;;;;;20.55;6.20;;;9.60;99.90;;;;;;5059686;28;20425;-64
2023/01/05 10:03:56;;;;;;;21.88;5.85;;;9.60;99.90;;;;;;5052998;28;20036;-64
2023/01/05 10:06:27;;;;;;;17.45;4.43;;;9.60;99.90;;;;;;5034867;28;20102;-64
2023/01/05 10:08:55;;;;;;;16.33;3.90;;;9.60;99.90;;;;;;5050111;28;20614;-65
2023/01/05 10:14:32;;;;;;;8.13;3.00;;;9.70;99.90;;;;;;5062833;28;20120;-65
2023/01/05 10:16:57;;;;;;;15.43;4.25;;;9.60;99.90;;;;;;5037138;28;20036;-64
2023/01/05 10:19:23;;;;;;;15.82;4.28;;;9.60;99.90;;;;;;5070821;28;20598;-65
2023/01/05 10:22:11;;;;;;;13.60;4.15;;;9.60;99.90;;;;;;5052145;28;20040;-64
2023/01/05 10:24:44;;;;;;;21.20;5.25;;;9.60;99.90;;;;;;5020512;28;20045;-64
2023/01/05 10:27:34;;;;;;;17.05;4.30;;;9.70;99.90;;;;;;5033549;28;20144;-64
2023/01/05 10:30:04;;;;;;;15.05;4.63;;;9.60;99.90;;;;;;5033796;28;20033;-64
2023/01/05 10:32:56;;;;;;;20.75;5.80;;;9.70;99.90;;;;;;5033602;28;20099;-64
2023/01/05 10:36:12;;;;;;;17.23;4.68;;;9.60;99.90;;;;;;5056268;28;20048;-64
2023/01/05 10:38:57;;;;;;;21.02;5.40;;;9.70;99.90;;;;;;5027670;28;20044;-64
2023/01/05 10:41:31;;;;;;;18.70;5.00;;;9.70;99.90;;;;;;5054227;28;20115;-65
2023/01/05 10:44:06;;;;;;;22.90;5.55;;;9.60;99.90;;;;;;5052437;28;20091;-65
2023/01/05 10:46:31;;;;;;;18.48;6.00;;;9.70;99.90;;;;;;5053305;28;20079;-64
2023/01/05 10:48:58;;;;;;;24.48;7.57;;;9.70;99.90;;;;;;5072861;28;20064;-65
2023/01/05 10:51:25;;;;;;;18.20;5.38;;;9.70;99.90;;;;;;5056257;28;20048;-65
2023/01/05 10:53:52;;;;;;;23.00;6.22;;;9.70;99.90;;;;;;5040059;28;20044;-65
2023/01/05 10:56:28;;;;;;;22.55;5.88;;;9.80;99.90;;;;;;5056666;28;20059;-65
2023/01/05 10:59:11;;;;;;;20.15;7.18;;;9.80;99.90;;;;;;5055929;28;20047;-65
2023/01/05 11:01:43;;;;;;;18.15;5.60;;;9.80;99.90;;;;;;5056833;28;20044;-65
2023/01/05 11:04:16;;;;;;;19.65;5.38;;;9.80;99.90;;;;;;5055831;28;20051;-65
2023/01/05 11:06:42;;;;;;;25.45;5.88;;;9.80;99.90;;;;;;5056566;28;20044;-65
2023/01/05 11:09:11;;;;;;;20.70;5.35;;;9.90;99.90;;;;;;5074554;28;20090;-65
2023/01/05 11:11:37;;;;;;;21.88;5.40;;;9.90;99.90;;;;;;5073844;28;20084;-64
2023/01/05 11:14:05;;;;;;;18.58;4.88;;;9.90;99.90;;;;;;5056483;28;20048;-65
2023/01/05 11:16:34;;;;;;;19.67;4.22;;;9.90;99.90;;;;;;5056362;28;20040;-64
2023/01/05 11:19:00;;;;;;;18.30;4.80;;;9.90;99.90;;;;;;5055839;28;20040;-65
2023/01/05 11:21:35;;;;;;;17.98;5.47;;;10.00;99.90;;;;;;5056542;28;20048;-65
2023/01/05 11:24:03;;;;;;;18.92;4.90;;;10.00;99.90;;;;;;5056266;28;20051;-65
2023/01/05 11:26:46;;;;;;;16.83;4.70;;;10.00;99.90;;;;;;5073368;28;20056;-64
2023/01/05 11:29:14;;;;;;;20.13;4.90;;;10.00;99.90;;;;;;5074120;28;20473;-65
2023/01/05 11:32:00;;;;;;;12.32;3.90;;;10.10;99.90;;;;;;5074357;28;20086;-65
2023/01/05 11:34:41;;;;;;;13.73;3.65;;;10.20;99.90;;;;;;5056279;28;20119;-65
2023/01/05 11:37:27;;;;;;;16.70;4.45;;;10.20;99.90;;;;;;5056022;28;20083;-65
2023/01/05 11:39:53;;;;;;;14.95;4.32;;;10.30;99.90;;;;;;5072688;28;20055;-65
2023/01/05 11:42:23;;;;;;;20.65;4.00;;;10.40;99.90;;;;;;5056098;28;20036;-65
2023/01/05 11:45:01;;;;;;;14.68;3.70;;;10.40;99.90;;;;;;5073630;28;20131;-65
2023/01/05 11:47:43;;;;;;;21.15;4.63;;;10.50;99.90;;;;;;5055229;28;20152;-65
2023/01/05 11:50:11;;;;;;;18.73;4.70;;;10.50;99.90;;;;;;5055874;28;20052;-65
2023/01/05 11:52:43;;;;;;;18.00;3.58;;;10.50;99.90;;;;;;5074028;28;20076;-65
2023/01/05 11:55:29;;;;;;;24.67;6.00;;;10.40;99.90;;;;;;5054880;28;20041;-65
2023/01/05 11:58:10;;;;;;;18.02;4.28;;;10.40;99.90;;;;;;5055554;28;20041;-65
2023/01/05 12:00:51;;;;;;;14.32;3.38;;;10.40;99.90;;;;;;5054945;28;20067;-65
2023/01/05 12:03:38;;;;;;;14.27;4.93;;;10.30;99.90;;;;;;5072156;28;20048;-65
2023/01/05 12:06:19;;;;;;;18.10;4.60;;;10.30;99.90;;;;;;5055115;28;20041;-65
2023/01/05 12:08:54;;;;;;;16.27;4.95;;;10.30;99.90;;;;;;5072494;28;20512;-65
2023/01/05 12:11:22;;;;;;;16.58;4.20;;;10.30;99.90;;;;;;5055285;28;20042;-64
2023/01/05 12:14:23;;;;;;;20.35;6.30;;;10.30;99.90;;;;;;5055269;28;20083;-65
2023/01/05 12:16:55;;;;;;;20.50;4.38;;;10.30;99.90;;;;;;5055099;28;20044;-65
2023/01/05 12:19:34;;;;;;;20.13;4.80;;;10.30;99.90;;;;;;5072915;28;20036;-65
2023/01/05 12:22:12;;;;;;;13.02;4.57;;;10.20;99.90;;;;;;5037611;28;20047;-65
2023/01/05 12:25:05;;;;;;;16.88;4.60;;;10.20;99.90;;;;;;5071779;28;20435;-65
2023/01/05 12:27:34;;;;;;;16.42;4.55;;;10.20;99.90;;;;;;5055150;28;20049;-65
2023/01/05 12:30:09;;;;;;;17.95;4.80;;;10.20;99.90;;;;;;5054002;28;20052;-65
2023/01/05 12:33:04;;;;;;;24.45;6.03;;;10.20;99.90;;;;;;5038588;28;20123;-65
2023/01/05 12:36:07;;;;;;;20.15;4.43;;;10.20;99.90;;;;;;5072145;28;20507;-65
2023/01/05 12:38:58;;;;;;;26.42;6.70;;;10.20;99.90;;;;;;5054993;28;20048;-64
2023/01/05 12:41:58;;;;;;;17.90;4.47;;;10.10;99.90;;;;;;5071347;28;20044;-65
2023/01/05 12:44:44;;;;;;;15.52;4.00;;;10.20;99.90;;;;;;5054010;28;20159;-65
2023/01/05 12:47:28;;;;;;;16.77;4.10;;;10.10;99.90;;;;;;5071625;28;20049;-65
2023/01/05 12:50:02;;;;;;;23.85;4.95;;;10.20;99.90;;;;;;5053811;28;20548;-64
2023/01/05 12:52:40;;;;;;;13.63;4.55;;;10.20;99.90;;;;;;5054582;28;20583;-65
2023/01/05 12:55:22;;;;;;;11.65;4.30;;;10.20;99.90;;;;;;5054541;28;20441;-65
2023/01/05 12:57:57;;;;;;;21.98;5.13;;;10.20;99.90;;;;;;5053331;28;20048;-65
2023/01/05 13:00:24;;;;;;;17.77;5.00;;;10.20;99.90;;;;;;5072528;28;20040;-65
2023/01/05 13:03:04;;;;;;;21.10;4.60;;;10.20;99.90;;;;;;5072436;28;20511;-65
2023/01/05 13:06:13;;;;;;;16.50;4.95;;;10.20;99.90;;;;;;5053867;28;20119;-65
2023/01/05 13:08:47;;;;;;;25.95;11.15;;;10.20;99.90;;;;;;5072619;28;20112;-65
2023/01/05 13:11:28;;;;;;;24.60;10.98;;;10.20;99.90;;;;;;5071019;28;20037;-65
2023/01/05 13:13:58;;;;;;;46.97;26.98;;;10.20;99.90;;;;;;5072106;28;20090;-65
2023/01/05 13:16:33;;;;;;;19.08;6.32;;;10.20;99.90;;;;;;5072041;28;20041;-65
2023/01/05 13:19:13;;;;;;;39.47;22.10;;;10.20;99.90;;;;;;5071498;28;20051;-65
2023/01/05 13:21:42;;;;;;;16.90;4.63;;;10.10;99.90;;;;;;5054347;28;20094;-65
2023/01/05 13:24:16;;;;;;;17.08;6.65;;;10.20;99.90;;;;;;5054367;28;20119;-65
2023/01/05 13:26:42;;;;;;;13.38;6.45;;;10.20;99.90;;;;;;5070949;28;20057;-64
2023/01/05 13:29:20;;;;;;;13.30;4.20;;;10.10;99.90;;;;;;5070969;28;20043;-65
2023/01/05 13:32:11;;;;;;;13.65;3.97;;;10.10;99.90;;;;;;5053305;28;20078;-65
2023/01/05 13:34:51;;;;;;;19.30;4.00;;;10.20;99.90;;;;;;5071279;28;20047;-65
2023/01/05 13:37:23;;;;;;;13.13;4.25;;;10.20;99.90;;;;;;5071858;28;20043;-65
2023/01/05 13:39:54;;;;;;;18.67;4.63;;;10.10;99.90;;;;;;5070238;28;20051;-65